createdAt,value
2022-10-29T00:02:39.430Z,2.78
2022-10-29T00:05:42.251Z,2.75
2022-10-29T00:08:46.568Z,3.40
2022-10-29T00:11:49.372Z,3.58
2022-10-29T00:14:52.139Z,3.10
2022-10-29T00:17:55.148Z,3.20
2022-10-29T00:21:02.123Z,3.30
2022-10-29T00:24:07.368Z,3.33
2022-10-29T00:27:10.319Z,3.47
2022-10-29T00:30:14.341Z,3.40
2022-10-29T00:36:27.948Z,3.50
2022-10-29T00:39:33.156Z,3.33
2022-10-29T00:42:35.931Z,3.03
2022-10-29T00:45:43.054Z,3.25
2022-10-29T00:48:49.829Z,3.70
2022-10-29T00:51:53.643Z,3.63
2022-10-29T00:55:00.881Z,3.50
2022-10-29T00:58:04.416Z,3.25
2022-10-29T01:01:07.319Z,3.30
2022-10-29T01:04:11.899Z,3.88
2022-10-29T01:07:14.798Z,3.80
2022-10-29T01:10:26.952Z,3.10
2022-10-29T01:13:43.881Z,3.45
2022-10-29T01:16:52.010Z,3.10
2022-10-29T01:20:26.387Z,3.30
2022-10-29T01:23:57.005Z,3.72
2022-10-29T01:27:29.493Z,3.42
2022-10-29T01:31:06.467Z,2.80
2022-10-29T01:34:18.309Z,3.35
2022-10-29T01:37:29.649Z,3.42
2022-10-29T01:40:36.114Z,3.28
2022-10-29T01:43:45.913Z,3.47
2022-10-29T01:46:56.343Z,3.47
2022-10-29T01:50:03.344Z,3.72
2022-10-29T01:53:07.609Z,3.25
2022-10-29T01:56:10.546Z,3.80
2022-10-29T01:59:23.297Z,3.63
2022-10-29T02:02:56.166Z,3.00
2022-10-29T02:06:08.076Z,3.45
2022-10-29T02:09:18.002Z,3.20
2022-10-29T02:12:25.285Z,3.20
2022-10-29T02:15:34.760Z,3.45
2022-10-29T02:18:43.435Z,3.47
2022-10-29T02:21:46.235Z,3.60
2022-10-29T02:24:49.022Z,3.38
2022-10-29T02:27:51.799Z,3.30
2022-10-29T02:30:54.561Z,3.90
2022-10-29T02:33:58.822Z,3.90
2022-10-29T02:37:01.604Z,3.75
2022-10-29T02:40:05.228Z,3.42
2022-10-29T02:43:08.034Z,3.55
2022-10-29T02:46:12.397Z,3.47
2022-10-29T02:49:16.604Z,3.80
2022-10-29T02:52:19.397Z,3.70
2022-10-29T02:55:22.311Z,3.70
2022-10-29T02:58:25.108Z,3.90
2022-10-29T03:01:28.005Z,3.60
2022-10-29T03:04:32.247Z,3.85
2022-10-29T03:07:36.833Z,3.60
2022-10-29T03:10:39.599Z,3.70
2022-10-29T03:13:42.447Z,3.60
2022-10-29T03:16:45.259Z,3.33
2022-10-29T03:19:49.431Z,3.20
2022-10-29T03:22:52.232Z,3.13
2022-10-29T03:25:56.702Z,3.30
2022-10-29T03:28:59.503Z,3.15
2022-10-29T03:32:02.304Z,3.58
2022-10-29T03:35:07.702Z,3.33
2022-10-29T03:38:10.468Z,3.55
2022-10-29T03:41:13.276Z,3.60
2022-10-29T03:44:16.089Z,3.53
2022-10-29T03:47:18.940Z,3.40
2022-10-29T03:50:23.091Z,4.00
2022-10-29T03:53:26.698Z,3.95
2022-10-29T03:56:29.526Z,3.80
2022-10-29T03:59:32.296Z,3.40
2022-10-29T04:02:35.249Z,3.70
2022-10-29T04:05:39.485Z,4.03
2022-10-29T04:08:42.816Z,4.20
2022-10-29T04:11:45.604Z,3.63
2022-10-29T04:14:48.465Z,3.55
2022-10-29T04:17:52.001Z,3.80
2022-10-29T04:28:41.471Z,4.10
2022-10-29T04:31:12.622Z,3.67
2022-10-29T04:34:15.417Z,3.65
2022-10-29T04:37:19.535Z,4.03
2022-10-29T04:40:24.353Z,4.15
2022-10-29T04:43:27.596Z,3.75
2022-10-29T04:46:30.346Z,4.20
2022-10-29T04:49:33.191Z,4.18
2022-10-29T04:52:37.395Z,3.40
2022-10-29T04:55:41.076Z,3.58
2022-10-29T04:58:43.891Z,3.90
2022-10-29T05:01:46.671Z,3.88
2022-10-29T05:04:49.463Z,4.05
2022-10-29T05:07:59.271Z,3.45
2022-10-29T05:11:03.412Z,4.03
2022-10-29T05:14:06.388Z,4.18
2022-10-29T05:17:09.275Z,3.88
2022-10-29T05:20:12.717Z,4.55
2022-10-29T05:23:16.854Z,4.28
2022-10-29T05:26:19.619Z,3.95
2022-10-29T05:29:22.476Z,3.80
2022-10-29T05:32:25.945Z,4.45
2022-10-29T05:35:29.056Z,3.67
2022-10-29T05:38:34.720Z,3.83
2022-10-29T05:41:37.582Z,4.28
2022-10-29T05:44:41.285Z,3.55
2022-10-29T05:47:45.183Z,4.13
2022-10-29T05:50:50.415Z,4.47
2022-10-29T05:53:54.674Z,5.10
2022-10-29T05:56:59.603Z,5.07
2022-10-29T06:00:02.445Z,4.70
2022-10-29T06:03:18.630Z,4.68
2022-10-29T06:06:22.096Z,4.95
2022-10-29T06:09:27.388Z,4.40
2022-10-29T06:12:34.830Z,4.40
2022-10-29T06:15:39.034Z,4.90
2022-10-29T06:18:42.027Z,4.10
2022-10-29T06:21:44.801Z,3.65
2022-10-29T06:24:49.071Z,4.32
2022-10-29T06:28:00.764Z,4.63
2022-10-29T06:31:03.927Z,4.50
2022-10-29T06:34:06.824Z,4.03
2022-10-29T06:37:09.657Z,4.55
2022-10-29T06:40:13.948Z,4.47
2022-10-29T06:43:16.818Z,4.28
2022-10-29T06:46:19.640Z,3.92
2022-10-29T06:49:22.448Z,4.28
2022-10-29T06:52:25.433Z,4.10
2022-10-29T06:55:29.947Z,4.40
2022-10-29T06:58:32.760Z,4.20
2022-10-29T07:01:36.246Z,4.53
2022-10-29T07:04:39.427Z,4.30
2022-10-29T07:07:42.852Z,4.55
2022-10-29T07:10:51.222Z,4.22
2022-10-29T07:13:54.072Z,4.45
2022-10-29T07:16:56.882Z,4.80
2022-10-29T07:20:00.862Z,4.70
2022-10-29T07:23:04.222Z,4.35
2022-10-29T07:26:08.529Z,4.30
2022-10-29T07:29:12.277Z,5.03
2022-10-29T07:32:15.562Z,4.10
2022-10-29T07:35:19.741Z,4.35
2022-10-29T07:38:22.542Z,4.25
2022-10-29T07:41:26.801Z,4.18
2022-10-29T07:44:29.592Z,4.20
2022-10-29T07:47:32.609Z,3.70
2022-10-29T07:50:37.378Z,4.13
2022-10-29T07:53:41.331Z,4.13
2022-10-29T07:56:47.749Z,4.07
2022-10-29T07:59:51.999Z,4.10
2022-10-29T08:02:55.866Z,3.85
2022-10-29T08:05:58.872Z,3.78
2022-10-29T08:09:01.786Z,4.22
2022-10-29T08:12:07.122Z,4.40
2022-10-29T08:15:10.537Z,4.00
2022-10-29T08:18:17.370Z,4.07
2022-10-29T08:21:20.521Z,4.25
2022-10-29T08:24:23.514Z,3.72
2022-10-29T08:27:28.032Z,3.78
2022-10-29T08:30:31.064Z,3.55
2022-10-29T08:33:33.943Z,3.67
2022-10-29T08:36:37.566Z,3.72
2022-10-29T08:39:40.529Z,4.28
2022-10-29T08:42:54.582Z,3.60
2022-10-29T08:46:00.158Z,3.60
2022-10-29T08:49:07.267Z,3.80
2022-10-29T08:52:19.817Z,3.40
2022-10-29T08:55:28.607Z,3.58
2022-10-29T08:58:38.243Z,3.90
2022-10-29T09:01:42.521Z,3.58
2022-10-29T09:04:45.574Z,3.15
2022-10-29T09:08:02.626Z,3.30
2022-10-29T09:11:19.548Z,3.08
2022-10-29T09:14:37.349Z,3.55
2022-10-29T09:17:51.721Z,3.67
2022-10-29T09:21:02.977Z,3.47
2022-10-29T09:24:14.418Z,3.33
2022-10-29T09:27:23.514Z,3.30
2022-10-29T09:30:30.611Z,3.50
2022-10-29T09:33:33.461Z,3.15
2022-10-29T09:36:36.324Z,3.95
2022-10-29T09:39:43.115Z,3.47
2022-10-29T09:42:48.400Z,3.47
2022-10-29T09:45:58.720Z,3.45
2022-10-29T09:49:11.150Z,3.55
2022-10-29T09:52:19.110Z,3.50
2022-10-29T09:55:25.297Z,3.20
2022-10-29T09:58:29.288Z,3.20
2022-10-29T10:01:33.568Z,3.25
2022-10-29T10:04:41.938Z,2.95
2022-10-29T10:08:06.361Z,3.30
2022-10-29T10:11:09.470Z,3.00
2022-10-29T10:14:18.746Z,3.50
2022-10-29T10:17:22.932Z,3.45
2022-10-29T10:20:32.892Z,2.90
2022-10-29T10:23:44.894Z,3.13
2022-10-29T10:26:47.772Z,3.10
2022-10-29T10:30:12.484Z,2.83
2022-10-29T10:33:27.181Z,3.20
2022-10-29T10:36:30.839Z,3.08
2022-10-29T10:39:39.814Z,3.00
2022-10-29T10:42:47.488Z,3.13
2022-10-29T10:45:56.178Z,3.10
2022-10-29T10:49:04.295Z,3.20
2022-10-29T10:52:19.478Z,2.83
2022-10-29T10:55:27.248Z,3.25
2022-10-29T10:58:36.673Z,3.03
2022-10-29T11:01:43.688Z,2.72
2022-10-29T11:04:54.342Z,3.10
2022-10-29T11:08:05.799Z,2.72
2022-10-29T11:11:13.667Z,2.75
2022-10-29T11:14:24.608Z,3.33
2022-10-29T11:17:30.244Z,2.75
2022-10-29T11:20:37.423Z,2.70
2022-10-29T11:23:50.072Z,2.70
2022-10-29T11:26:59.441Z,2.80
2022-10-29T11:30:07.760Z,3.00
2022-10-29T11:33:21.645Z,3.03
2022-10-29T11:36:31.039Z,3.22
2022-10-29T11:39:44.772Z,2.60
2022-10-29T11:42:47.571Z,2.55
2022-10-29T11:46:00.053Z,2.70
2022-10-29T11:49:14.880Z,2.85
2022-10-29T11:52:33.263Z,2.90
2022-10-29T11:55:46.648Z,2.72
2022-10-29T11:58:55.467Z,2.95
2022-10-29T12:02:09.824Z,2.88
2022-10-29T12:05:18.384Z,2.58
2022-10-29T12:08:38.683Z,2.60
2022-10-29T12:11:46.294Z,2.65
2022-10-29T12:14:55.311Z,3.03
2022-10-29T12:18:05.603Z,2.85
2022-10-29T12:21:16.685Z,2.95
2022-10-29T12:24:33.896Z,2.65
2022-10-29T12:27:46.336Z,2.70
2022-10-29T12:31:04.221Z,3.10
2022-10-29T12:34:14.322Z,2.65
2022-10-29T12:37:25.731Z,2.80
2022-10-29T12:40:33.816Z,2.70
2022-10-29T12:43:40.250Z,2.60
2022-10-29T12:46:48.090Z,2.63
2022-10-29T12:50:02.710Z,2.75
2022-10-29T12:53:14.267Z,2.80
2022-10-29T12:56:19.261Z,2.58
2022-10-29T12:59:34.502Z,2.55
2022-10-29T13:02:47.250Z,2.33
2022-10-29T13:05:50.095Z,3.03
2022-10-29T13:08:57.579Z,2.40
2022-10-29T13:12:03.867Z,2.85
2022-10-29T13:15:15.363Z,2.80
2022-10-29T13:18:23.781Z,2.47
2022-10-29T13:22:15.299Z,2.70
2022-10-29T13:25:51.894Z,2.58
2022-10-29T13:28:56.064Z,2.30
2022-10-29T13:32:04.864Z,3.13
2022-10-29T13:35:43.025Z,2.55
2022-10-29T13:39:07.368Z,2.80
2022-10-29T13:42:13.959Z,2.90
2022-10-29T13:45:17.124Z,2.83
2022-10-29T13:48:26.278Z,2.63
2022-10-29T13:51:38.005Z,2.70
2022-10-29T13:54:43.698Z,2.90
2022-10-29T13:58:03.305Z,2.90
2022-10-29T14:01:10.255Z,2.72
2022-10-29T14:04:23.708Z,2.50
2022-10-29T14:07:34.843Z,2.42
2022-10-29T14:10:46.112Z,2.30
2022-10-29T14:13:51.200Z,2.58
2022-10-29T14:17:15.469Z,2.33
2022-10-29T14:20:24.298Z,2.17
2022-10-29T14:23:29.484Z,2.85
2022-10-29T14:26:35.063Z,2.95
2022-10-29T14:29:38.360Z,2.50
2022-10-29T14:32:41.560Z,2.80
2022-10-29T14:35:45.055Z,2.60
2022-10-29T14:38:52.694Z,2.80
2022-10-29T14:41:56.766Z,2.50
2022-10-29T14:45:03.459Z,2.72
2022-10-29T14:48:10.636Z,3.00
2022-10-29T14:51:20.075Z,2.60
2022-10-29T14:54:27.357Z,2.50
2022-10-29T14:57:34.760Z,2.70
2022-10-29T15:00:38.286Z,2.70
2022-10-29T15:03:41.515Z,2.67
2022-10-29T15:06:44.327Z,2.70
2022-10-29T15:09:48.468Z,2.42
2022-10-29T15:12:52.556Z,2.38
2022-10-29T15:16:00.624Z,2.60
2022-10-29T15:19:03.478Z,2.47
2022-10-29T15:22:09.703Z,2.30
2022-10-29T15:25:26.051Z,2.42
2022-10-29T15:28:30.863Z,2.22
2022-10-29T15:31:44.086Z,2.20
2022-10-29T15:34:49.534Z,2.63
2022-10-29T15:37:53.299Z,2.55
2022-10-29T15:41:31.769Z,2.42
2022-10-29T15:44:37.988Z,2.53
2022-10-29T15:47:42.553Z,2.60
2022-10-29T15:50:47.480Z,2.50
2022-10-29T15:53:50.456Z,3.13
2022-10-29T15:56:54.628Z,3.17
2022-10-29T15:59:57.484Z,3.13
2022-10-29T16:03:11.466Z,3.00
2022-10-29T16:06:16.824Z,3.03
2022-10-29T16:09:21.800Z,2.90
2022-10-29T16:12:26.502Z,2.42
2022-10-29T16:15:29.357Z,2.97
2022-10-29T16:18:32.182Z,2.63
2022-10-29T16:21:35.800Z,2.78
2022-10-29T16:24:38.593Z,3.47
2022-10-29T16:27:43.876Z,3.50
2022-10-29T16:30:55.075Z,3.35
2022-10-29T16:34:00.075Z,3.80
2022-10-29T16:37:02.849Z,4.10
2022-10-29T16:40:06.854Z,3.78
2022-10-29T16:43:11.464Z,4.32
2022-10-29T16:46:14.807Z,3.70
2022-10-29T16:49:17.615Z,3.70
2022-10-29T16:52:21.832Z,3.75
2022-10-29T16:55:27.365Z,3.42
2022-10-29T16:58:31.619Z,3.88
2022-10-29T17:01:34.404Z,4.30
2022-10-29T17:04:37.253Z,4.53
2022-10-29T17:07:40.214Z,4.70
2022-10-29T17:10:43.069Z,4.45
2022-10-29T17:13:47.222Z,5.15
2022-10-29T17:16:50.070Z,6.13
2022-10-29T17:19:53.794Z,6.45
2022-10-29T17:22:56.608Z,5.47
2022-10-29T17:26:00.088Z,5.03
2022-10-29T17:29:04.421Z,5.35
2022-10-29T17:32:08.800Z,4.25
2022-10-29T17:35:11.614Z,4.90
2022-10-29T17:38:14.523Z,4.55
2022-10-29T17:41:17.334Z,4.85
2022-10-29T17:44:21.535Z,4.43
2022-10-29T17:47:24.442Z,4.13
2022-10-29T17:50:27.890Z,4.97
2022-10-29T17:53:32.342Z,4.45
2022-10-29T17:56:35.102Z,5.70
2022-10-29T17:59:39.231Z,5.25
2022-10-29T18:02:42.189Z,5.05
2022-10-29T18:05:45.226Z,6.03
2022-10-29T18:08:48.053Z,6.38
2022-10-29T18:11:51.188Z,5.50
2022-10-29T18:14:55.317Z,6.07
2022-10-29T18:17:59.965Z,4.97
2022-10-29T18:21:02.788Z,5.65
2022-10-29T18:24:06.266Z,5.45
2022-10-29T18:27:09.026Z,5.35
2022-10-29T18:30:13.808Z,5.88
2022-10-29T18:33:16.612Z,6.38
2022-10-29T18:36:19.437Z,6.05
2022-10-29T18:39:22.223Z,6.75
2022-10-29T18:42:25.021Z,6.65
2022-10-29T18:45:29.194Z,6.70
2022-10-29T18:48:32.786Z,7.38
2022-10-29T18:51:35.603Z,6.10
2022-10-29T18:54:38.496Z,6.70
2022-10-29T18:57:41.271Z,5.75
2022-10-29T19:00:45.895Z,5.72
2022-10-29T19:03:50.590Z,5.88
2022-10-29T19:06:55.061Z,5.97
2022-10-29T19:09:57.835Z,6.00
2022-10-29T19:13:00.623Z,6.45
2022-10-29T19:16:06.251Z,5.93
2022-10-29T19:19:12.664Z,6.50
2022-10-29T19:22:15.451Z,6.90
2022-10-29T19:25:18.250Z,6.55
2022-10-29T19:28:21.079Z,6.93
2022-10-29T19:31:27.217Z,7.18
2022-10-29T19:34:30.027Z,6.80
2022-10-29T19:37:32.811Z,6.88
2022-10-29T19:40:35.732Z,5.70
2022-10-29T19:43:38.988Z,7.10
2022-10-29T19:46:43.425Z,6.35
2022-10-29T19:49:46.331Z,5.97
2022-10-29T19:52:50.854Z,6.40
2022-10-29T19:55:53.898Z,6.65
2022-10-29T19:58:56.660Z,6.32
2022-10-29T20:02:01.102Z,6.45
2022-10-29T20:05:04.899Z,6.95
2022-10-29T20:08:11.370Z,6.20
2022-10-29T20:11:17.582Z,6.60
2022-10-29T20:14:22.167Z,6.25
2022-10-29T20:17:31.896Z,5.85
2022-10-29T20:20:34.735Z,6.40
2022-10-29T20:23:38.098Z,6.32
2022-10-29T20:26:40.857Z,6.45
2022-10-29T20:29:43.685Z,5.63
2022-10-29T20:32:48.996Z,6.43
2022-10-29T20:35:54.243Z,6.60
2022-10-29T20:38:57.232Z,6.85
2022-10-29T20:42:00.434Z,6.78
2022-10-29T20:45:03.227Z,6.53
2022-10-29T20:48:07.839Z,7.28
2022-10-29T20:51:11.580Z,7.05
2022-10-29T20:54:14.479Z,7.10
2022-10-29T20:57:17.266Z,6.07
2022-10-29T21:00:20.139Z,6.15
2022-10-29T21:03:24.269Z,6.10
2022-10-29T21:06:27.060Z,6.20
2022-10-29T21:09:29.867Z,6.75
2022-10-29T21:12:32.635Z,6.70
2022-10-29T21:15:36.651Z,6.65
2022-10-29T21:18:41.729Z,6.43
2022-10-29T21:21:44.649Z,7.20
2022-10-29T21:24:47.432Z,6.93
2022-10-29T21:27:54.417Z,7.22
2022-10-29T21:30:57.384Z,7.28
2022-10-29T21:34:01.653Z,6.88
2022-10-29T21:37:04.423Z,6.80
2022-10-29T21:40:08.343Z,6.47
2022-10-29T21:43:11.133Z,6.30
2022-10-29T21:46:13.960Z,6.97
2022-10-29T21:49:18.115Z,7.03
2022-10-29T21:52:20.865Z,6.85
2022-10-29T21:55:23.663Z,6.75
2022-10-29T21:58:27.378Z,6.85
2022-10-29T22:01:30.242Z,6.55
2022-10-29T22:04:34.429Z,6.70
2022-10-29T22:07:37.309Z,7.13
2022-10-29T22:10:40.552Z,7.18
2022-10-29T22:13:43.321Z,7.13
2022-10-29T22:16:46.089Z,7.05
2022-10-29T22:19:50.476Z,6.97
2022-10-29T22:22:53.269Z,6.80
2022-10-29T22:25:56.042Z,6.95
2022-10-29T22:28:59.000Z,6.32
2022-10-29T22:32:01.752Z,6.55
2022-10-29T22:35:06.466Z,6.60
2022-10-29T22:38:09.236Z,6.70
2022-10-29T22:41:13.457Z,6.88
2022-10-29T22:44:16.231Z,6.78
2022-10-29T22:47:19.033Z,7.90
2022-10-29T22:50:23.169Z,7.10
2022-10-29T22:53:25.945Z,6.20
2022-10-29T22:56:30.689Z,6.97
2022-10-29T22:59:33.461Z,7.07
2022-10-29T23:02:36.351Z,6.43
2022-10-29T23:05:40.577Z,6.68
2022-10-29T23:08:44.510Z,6.50
2022-10-29T23:11:47.533Z,6.32
2022-10-29T23:14:50.320Z,7.15
2022-10-29T23:17:54.060Z,6.25
2022-10-29T23:21:02.666Z,7.05
2022-10-29T23:24:05.979Z,7.03
2022-10-29T23:27:08.773Z,7.07
2022-10-29T23:30:12.769Z,6.80
2022-10-29T23:33:15.530Z,6.75
2022-10-29T23:36:21.559Z,6.75
2022-10-29T23:39:24.316Z,7.40
2022-10-29T23:42:27.084Z,6.65
2022-10-29T23:45:29.848Z,6.72
2022-10-29T23:48:32.870Z,6.88
2022-10-29T23:51:37.034Z,6.75
2022-10-29T23:54:39.818Z,6.82
2022-10-29T23:57:42.583Z,7.45
